Time;durP1;ratioP1;P1;durP2;ratioP2;P2;SDS_P1;SDS_P2;PMS_P1;PMS_P2;Temp;Humidity;BMP_temperature;BMP_pressure;BME280_temperature;BME280_humidity;BME280_pressure;Samples;Min_cycle;Max_cycle;Signal;HPM_P1;HPM_P2
2023/01/08 00:04:37;;;;;;;8.90;6.80;;;;;;;-7.99;87.94;101816.94;31603353;28;20097;-74
2023/01/08 00:19:40;;;;;;;5.90;5.43;;;;;;;-8.01;84.51;101819.03;31589878;28;20101;-74
2023/01/08 00:34:42;;;;;;;3.73;3.43;;;;;;;-8.32;86.99;101812.75;31579291;28;20113;-76
2023/01/08 00:49:44;;;;;;;7.63;5.17;;;;;;;-8.22;89.55;101805.94;31581861;28;20067;-74
2023/01/08 01:04:47;;;;;;;8.20;7.17;;;;;;;-7.99;90.79;101816.94;31576659;28;20071;-75
2023/01/08 01:19:51;;;;;;;9.07;6.27;;;;;;;-7.47;85.79;101812.78;31579153;28;20048;-75
2023/01/08 01:34:53;;;;;;;11.57;5.60;;;;;;;-7.40;86.15;101803.59;31595950;28;20139;-75
2023/01/08 01:50:06;;;;;;;10.43;8.13;;;;;;;-7.42;80.92;101805.69;31567555;28;20110;-75
2023/01/08 02:05:08;;;;;;;3.77;3.43;;;;;;;-7.80;78.31;101809.44;31568419;28;21855;-76
2023/01/08 02:20:13;;;;;;;4.60;4.20;;;;;;;-7.94;80.45;101819.63;31592128;28;20438;-74
2023/01/08 02:35:19;;;;;;;3.93;3.60;;;;;;;-7.88;83.48;101817.81;31602442;28;20052;-73
2023/01/08 02:50:21;;;;;;;5.13;3.77;;;;;;;-8.17;78.02;101819.97;31592615;28;20048;-75
2023/01/08 03:05:26;;;;;;;6.13;4.77;;;;;;;-7.96;82.08;101828.81;31583889;28;20101;-74
2023/01/08 03:20:30;;;;;;;;;;;;;;;-8.14;80.38;101819.47;31595542;28;20044;-75
2023/01/08 03:35:35;;;;;;;7.67;5.93;;;;;;;-8.08;82.60;101828.22;31592265;28;19967;-74
2023/01/08 03:50:37;;;;;;;9.53;5.90;;;;;;;-8.74;84.65;101819.75;31578357;28;20079;-75
2023/01/08 04:05:39;;;;;;;6.87;5.50;;;;;;;-8.82;87.49;101831.50;31582525;28;20499;-74
2023/01/08 04:20:45;;;;;;;6.73;6.17;;;;;;;-8.82;87.04;101841.25;31586871;28;20109;-74
2023/01/08 04:35:47;;;;;;;8.97;6.73;;;;;;;-8.22;83.61;101846.28;31590425;28;20052;-75
2023/01/08 04:50:50;;;;;;;7.77;5.60;;;;;;;-8.18;83.45;101844.72;31573322;28;20056;-74
2023/01/08 05:05:52;;;;;;;7.20;4.90;;;;;;;-8.42;86.56;101860.09;31569980;28;20071;-74
2023/01/08 05:20:54;;;;;;;4.63;4.27;;;;;;;-8.50;84.17;101875.56;31572388;28;20089;-74
2023/01/08 05:35:56;;;;;;;5.00;4.33;;;;;;;-8.28;81.97;101892.88;31563066;28;20083;-75
2023/01/08 05:50:58;;;;;;;9.13;7.67;;;;;;;-8.74;83.85;101891.59;31584377;28;20048;-75
2023/01/08 06:06:02;;;;;;;6.27;5.77;;;;;;;-8.58;87.68;101907.59;31618119;28;20101;-75
2023/01/08 06:21:04;;;;;;;9.43;6.63;;;;;;;-7.80;81.08;101904.38;31624802;28;20059;-76
2023/01/08 06:36:06;;;;;;;12.00;6.00;;;;;;;-6.23;74.10;101906.97;31630307;28;20105;-76
2023/01/08 06:51:08;;;;;;;12.30;8.23;;;;;;;-6.60;77.68;101900.00;31605880;28;20403;-75
2023/01/08 07:06:15;;;;;;;7.47;5.30;;;;;;;-7.18;76.98;101905.56;31615873;28;20052;-78
2023/01/08 07:21:19;;;;;;;6.07;4.57;;;;;;;-7.34;73.35;101902.06;31595918;28;20458;-78
2023/01/08 07:36:23;;;;;;;21.80;9.63;;;;;;;-7.03;75.09;101908.28;31603450;28;20561;-77
2023/01/08 07:51:25;;;;;;;7.37;6.23;;;;;;;-1.66;49.78;101914.25;31617116;28;20445;-78
2023/01/08 08:06:30;;;;;;;17.83;7.40;;;;;;;0.79;42.64;101922.81;31634100;28;20044;-79
2023/01/08 08:21:32;;;;;;;12.27;7.10;;;;;;;1.68;37.09;101935.81;31648339;28;20068;-80
2023/01/08 08:36:34;;;;;;;13.73;8.30;;;;;;;1.22;36.56;101935.56;31648690;28;20091;-78
2023/01/08 08:51:36;;;;;;;9.57;5.97;;;;;;;1.54;35.61;101908.41;31648319;28;20048;-81
2023/01/08 09:06:38;;;;;;;15.63;7.00;;;;;;;1.32;34.99;101913.91;31605567;28;20057;-75
2023/01/08 09:21:43;;;;;;;24.03;7.03;;;;;;;1.62;45.06;101901.50;31619887;28;20056;-77
2023/01/08 09:36:45;;;;;;;10.67;6.60;;;;;;;1.83;34.31;101880.25;31615694;28;20089;-76
2023/01/08 09:51:48;;;;;;;13.93;6.03;;;;;;;1.77;34.70;101866.22;31574511;28;20102;-75
2023/01/08 10:07:01;;;;;;;14.80;6.30;;;;;;;1.32;33.56;101860.38;31595238;28;20048;-76
2023/01/08 10:22:12;;;;;;;11.10;5.87;;;;;;;1.00;36.43;101850.88;31563494;28;20052;-76
2023/01/08 10:37:27;;;;;;;7.80;4.07;;;;;;;2.08;34.49;101817.81;31585988;28;20059;-75
2023/01/08 10:52:31;;;;;;;8.50;5.33;;;;;;;2.75;34.73;101825.16;31631092;28;20093;-75
2023/01/08 11:07:34;;;;;;;15.97;6.27;;;;;;;2.29;40.99;101825.97;31626567;28;20116;-76
2023/01/08 11:22:36;;;;;;;11.30;6.00;;;;;;;1.21;35.60;101843.03;31605945;28;20048;-73
2023/01/08 11:37:45;;;;;;;9.93;5.13;;;;;;;0.77;36.78;101839.47;31617218;28;20055;-76
2023/01/08 11:53:11;;;;;;;8.53;4.43;;;;;;;1.09;35.65;101842.88;31613705;28;20051;-74
2023/01/08 12:08:19;;;;;;;5.97;4.27;;;;;;;1.56;38.69;101841.97;31603345;28;20533;-74
2023/01/08 12:23:29;;;;;;;10.83;6.27;;;;;;;2.23;35.84;101836.06;31572842;28;20407;-74
2023/01/08 12:38:39;;;;;;;14.97;5.87;;;;;;;2.04;42.48;101841.00;31612041;28;20048;-76
2023/01/08 12:53:57;;;;;;;13.83;5.97;;;;;;;-0.29;40.54;101834.19;31652415;28;20051;-77
2023/01/08 13:08:59;;;;;;;11.23;5.60;;;;;;;-3.29;48.42;101865.88;31659165;28;20052;-75
2023/01/08 16:36:52;;;;;;;34.30;7.03;;;;;;;-6.68;95.87;101884.69;31658277;27;1487684;-75
2023/01/08 16:51:54;;;;;;;6.70;5.70;;;;;;;-6.92;95.34;101886.97;31682990;28;20051;-75
2023/01/08 17:06:57;;;;;;;9.90;6.90;;;;;;;-7.01;98.43;101892.97;31682465;28;20048;-74
2023/01/08 17:21:59;;;;;;;9.43;7.90;;;;;;;-7.25;97.21;101896.03;31676040;28;20059;-74
2023/01/08 17:37:01;;;;;;;15.70;6.57;;;;;;;-7.62;97.12;101908.47;31600552;28;20397;-76
2023/01/08 17:52:03;;;;;;;16.30;8.33;;;;;;;-7.93;98.29;101905.56;31608215;28;20086;-75
2023/01/08 18:07:05;;;;;;;12.57;6.73;;;;;;;-8.18;99.54;101910.59;31599523;28;20052;-75
2023/01/08 18:22:07;;;;;;;6.23;5.33;;;;;;;-8.27;100.00;101920.78;31585083;28;20392;-75
2023/01/08 18:37:09;;;;;;;11.57;9.17;;;;;;;-8.39;100.00;101945.72;31588360;28;20058;-77
2023/01/08 18:52:12;;;;;;;11.00;8.13;;;;;;;-8.52;100.00;101909.25;31572159;28;20102;-76
2023/01/08 19:07:15;;;;;;;12.67;9.03;;;;;;;-8.39;100.00;101907.00;31592017;28;20075;-75
2023/01/08 19:43:47;;;;;;;12.03;6.40;;;;;;;-8.25;100.00;101894.19;31260672;28;20430;-76
2023/01/08 19:58:50;;;;;;;11.30;5.97;;;;;;;-8.44;100.00;101914.06;31258295;28;20053;-78
2023/01/08 20:13:54;;;;;;;6.23;5.73;;;;;;;-8.48;100.00;101940.09;31262573;28;20052;-75
2023/01/08 20:28:57;;;;;;;2.63;2.50;;;;;;;-8.58;100.00;101962.88;31231513;28;20061;-76
2023/01/08 20:44:05;;;;;;;11.47;5.47;;;;;;;-8.15;100.00;101965.44;31154943;28;20057;-77
2023/01/08 20:59:07;;;;;;;12.07;6.83;;;;;;;-8.26;100.00;101971.66;31162441;28;20054;-77
2023/01/08 21:14:10;;;;;;;6.13;5.63;;;;;;;-8.67;100.00;101979.09;31170609;28;20099;-85
2023/01/08 21:29:12;;;;;;;12.40;4.50;;;;;;;-8.85;100.00;101965.44;31180117;28;20112;-77
2023/01/08 21:59:40;;;;;;;4.93;4.47;;;;;;;-8.95;100.00;101960.81;31170736;28;20049;-78
2023/01/08 22:14:43;;;;;;;5.77;5.27;;;;;;;-9.19;100.00;101946.28;31156029;28;20111;-77
2023/01/08 22:29:46;;;;;;;10.07;5.97;;;;;;;-9.27;100.00;101946.69;31159727;28;20446;-77
2023/01/08 22:44:48;;;;;;;8.83;7.83;;;;;;;-9.48;100.00;101943.78;31170400;28;20050;-77
2023/01/08 22:59:51;;;;;;;5.50;4.93;;;;;;;-9.53;100.00;101938.44;31189685;28;20053;-78
2023/01/08 23:14:52;;;;;;;13.47;6.53;;;;;;;-9.80;100.00;101926.94;31189039;28;20054;-77
2023/01/08 23:29:54;;;;;;;7.93;5.67;;;;;;;-9.99;100.00;101935.06;31149303;28;20066;-76
2023/01/08 23:44:57;;;;;;;10.00;5.67;;;;;;;-10.18;100.00;101925.78;31152636;28;20072;-77
2023/01/08 23:59:59;;;;;;;10.33;5.07;;;;;;;-10.13;100.00;101930.31;31152525;28;20504;-77
